CYYL

Lynn Lake Airport

Lynn Lake, Manitoba, Canada
TAF CYYL 171838Z 1719/1807 31012G22KT P6SM FEW015 TEMPO 1719/1807 P6SM -SN SCT015 BECMG 1801/1803 31008KT RMK FCST BASED ON AUTO OBS. NXT FCST BY 180100Z
Issued Valid From Valid To
Jan-17 @ 18:38 UTC
(5 hours ago)
Jan-17 @ 19:00 UTC
(5 hours ago)
Jan-18 @ 07:00 UTC
(in 7 hours)
Jan-17 @ 19:00 to Jan-18 @ 01:00
TAF CYYL 171838Z 1719/1807 31012G22KT P6SM FEW015
Wind Visibility Clouds
310° at 12 knots
 Gusting to 22 knots
Greater than 6 miles
  • Few at 1,500' AGL
Temporary Jan-17 @ 19:00 to Jan-18 @ 07:00
TEMPO 1719/1807 P6SM -SN SCT015
Visibility Clouds Conditions
Greater than 6 miles
  • Scattered at 1,500' AGL
  • Light Snow
Becoming Jan-18 @ 01:00 to Jan-18 @ 07:00
BECMG 1801/1803 31008KT RMK FCST BASED ON AUTO OBS. NXT FCST BY 180100Z
Wind Visibility Clouds
310° at 8 knots Greater than 6 miles
  • Few at 1,500' AGL
TAF CYYL 171838Z 1719/1807 31012G22KT P6SM FEW015 TEMPO 1719/1807 P6SM -SN SCT015 BECMG 1801/1803 31008KT RMK FCST BASED ON AUTO OBS. NXT FCST BY 180100Z
Issued Jan-17 @ 18:38 UTC
(5 hours ago)
Valid From Jan-17 @ 19:00 UTC
(5 hours ago)
Valid To Jan-18 @ 07:00 UTC
(in 7 hours)
Jan-17 @ 19:00 - Jan-18 @ 01:00
Wind Visibility
310° at 12 knots
 Gusting to 22 knots
Greater than 6 miles
Clouds
  • Few at 1,500' AGL
Temporary Jan-17 @ 19:00 - Jan-18 @ 07:00
Clouds
  • Scattered at 1,500' AGL
Conditions
  • Light Snow
Becoming Jan-18 @ 01:00 - Jan-18 @ 07:00
Wind Visibility
310° at 8 knots Greater than 6 miles
Clouds
  • Few at 1,500' AGL